This is the latest recevied weather packets stored in our database for station/object KK7KHO. If no packets are shown the sender has not sent any weather packets the latest 10 day(s).
| Time | Temp. | Humidity | Pressure | Rain* | Wind** | Luminosity | Snow |
|---|---|---|---|---|---|---|---|
| 1777762617 | 22.78° C | 55% | 1013.7 hPa | 0 mm | - | 492 W/m² | - |
| 1777762315 | 22.78° C | 57% | 1013.6 hPa | 0 mm | - | 503 W/m² | - |
| 1777762011 | 22.78° C | 57% | 1013.5 hPa | 0 mm | - | 512 W/m² | - |
| 1777761708 | 22.22° C | 58% | 1013.8 hPa | 0 mm | - | 522 W/m² | - |
| 1777761405 | 22.22° C | 60% | 1013.7 hPa | 0 mm | - | 531 W/m² | - |
| 1777761103 | 22.78° C | 59% | 1013.9 hPa | 0 mm | - | 539 W/m² | - |
| 1777760801 | 22.78° C | 61% | 1014 hPa | 0 mm | - | 546 W/m² | - |
| 1777760497 | 22.22° C | 62% | 1013.9 hPa | 0 mm | - | 555 W/m² | - |
| 1777760192 | 21.67° C | 63% | 1014.1 hPa | 0 mm | - | 562 W/m² | - |
| 1777759889 | 22.22° C | 62% | 1014.3 hPa | 0 mm | - | 570 W/m² | - |
| 1777759586 | 22.22° C | 64% | 1014.4 hPa | 0 mm | - | 577 W/m² | - |
| 1777759282 | 21.67° C | 65% | 1014.4 hPa | 0 mm | - | 584 W/m² | - |
| 1777758979 | 22.22° C | 64% | 1014.4 hPa | 0 mm | - | 591 W/m² | - |
| 1777758676 | 22.22° C | 64% | 1014.6 hPa | 0 mm | - | 597 W/m² | - |
| 1777758367 | 21.67° C | 66% | 1014.7 hPa | 0 mm | - | 604 W/m² | - |
| 1777758065 | 22.22° C | 66% | 1014.6 hPa | 0 mm | - | 610 W/m² | - |
| 1777757762 | 21.67° C | 67% | 1014.6 hPa | 0 mm | - | 617 W/m² | - |
| 1777757459 | 22.22° C | 65% | 1014.6 hPa | 0 mm | - | 622 W/m² | - |
| 1777757158 | 21.67° C | 67% | 1014.8 hPa | 0 mm | - | 628 W/m² | - |
| 1777756855 | 21.67° C | 66% | 1014.6 hPa | 0 mm | - | 632 W/m² | - |
| 1777756550 | 22.22° C | 67% | 1014.7 hPa | 0 mm | - | 636 W/m² | - |
| 1777756248 | 22.22° C | 66% | 1014.9 hPa | 0 mm | - | 640 W/m² | - |
| 1777755945 | 21.11° C | 69% | 1015 hPa | 0 mm | - | 645 W/m² | - |
| 1777755642 | 21.11° C | 70% | 1014.7 hPa | 0 mm | - | 649 W/m² | - |
| 1777755338 | 21.11° C | 71% | 1014.8 hPa | 0 mm | - | 651 W/m² | - |
* Rain latest hour (hover to see other rain measurements)
** Current wind speed in m/s (hover to see current wind gust speed)